Time;durP1;ratioP1;P1;durP2;ratioP2;P2;SDS_P1;SDS_P2;PMS_P1;PMS_P2;Temp;Humidity;BMP_temperature;BMP_pressure;BME280_temperature;BME280_humidity;BME280_pressure;Samples;Min_cycle;Max_cycle;Signal;HPM_P1;HPM_P2
2024/02/07 00:02:02;;;;;;;3.92;2.00;;;;;;;21.54;43.60;100212.47;5036379;27;98009;-78
2024/02/07 00:04:28;;;;;;;5.35;1.85;;;;;;;21.54;43.46;100199.19;5029817;27;96811;-77
2024/02/07 00:06:53;;;;;;;5.30;2.05;;;;;;;21.54;43.31;100202.69;5028386;27;96959;-77
2024/02/07 00:09:18;;;;;;;4.45;1.42;;;;;;;21.54;43.41;100199.19;5040902;27;98202;-77
2024/02/07 00:11:44;;;;;;;4.05;1.98;;;;;;;21.53;43.45;100211.56;5029013;27;96854;-77
2024/02/07 00:14:09;;;;;;;4.88;1.80;;;;;;;21.54;43.64;100192.09;5030631;27;96725;-77
2024/02/07 00:16:35;;;;;;;4.05;1.58;;;;;;;21.54;43.31;100197.41;5012330;28;96923;-77
2024/02/07 00:19:00;;;;;;;3.83;1.52;;;;;;;21.54;43.66;100185.94;5017231;27;97530;-77
2024/02/07 00:21:25;;;;;;;3.70;2.03;;;;;;;21.54;43.13;100192.09;5015630;27;100362;-78
2024/02/07 00:23:51;;;;;;;5.25;1.65;;;;;;;21.55;43.46;100195.59;5027097;27;108561;-77
2024/02/07 00:26:17;;;;;;;3.40;1.50;;;;;;;21.54;43.51;100204.50;5024895;27;96855;-77
2024/02/07 00:28:42;;;;;;;4.88;1.92;;;;;;;21.54;43.51;100197.41;5028364;27;97996;-77
2024/02/07 00:31:07;;;;;;;6.18;2.15;;;;;;;21.54;43.61;100191.22;5026570;27;100959;-77
2024/02/07 00:33:33;;;;;;;6.10;1.65;;;;;;;21.54;43.21;100194.75;5028463;27;96615;-77
2024/02/07 00:35:58;;;;;;;5.45;1.85;;;;;;;21.54;43.58;100197.41;5028808;27;114578;-77
2024/02/07 00:38:24;;;;;;;4.57;2.33;;;;;;;21.55;43.64;100222.13;5025320;27;97021;-77
2024/02/07 00:40:49;;;;;;;5.88;2.20;;;;;;;21.55;43.31;100222.13;5027219;27;97373;-77
2024/02/07 00:43:15;;;;;;;4.22;2.00;;;;;;;21.54;43.46;100241.66;5026273;27;110631;-77
2024/02/07 00:45:41;;;;;;;5.20;2.10;;;;;;;21.55;43.63;100251.31;5028641;28;97570;-77
2024/02/07 00:48:07;;;;;;;4.78;2.00;;;;;;;21.55;43.62;100283.16;5025408;27;97507;-77
2024/02/07 00:50:32;;;;;;;4.18;1.95;;;;;;;21.56;43.68;100239.78;5027543;27;96983;-77
2024/02/07 00:52:58;;;;;;;4.22;1.80;;;;;;;21.55;43.51;100272.53;5025788;27;115706;-77
2024/02/07 00:55:23;;;;;;;4.72;1.42;;;;;;;21.55;43.41;100272.53;5026927;28;111640;-77
2024/02/07 00:57:49;;;;;;;5.65;1.52;;;;;;;21.54;43.48;100287.63;5028673;28;97412;-77
2024/02/07 01:00:15;;;;;;;6.57;2.53;;;;;;;21.55;43.42;100286.69;5022871;27;96848;-77
2024/02/07 01:02:41;;;;;;;5.05;1.98;;;;;;;21.55;43.55;100299.97;5027152;27;96743;-77
2024/02/07 01:05:08;;;;;;;5.75;2.30;;;;;;;21.56;43.32;100282.25;5030055;27;97177;-77
2024/02/07 01:07:34;;;;;;;3.83;1.90;;;;;;;21.55;43.37;100269.88;5027126;27;96718;-77
2024/02/07 01:09:59;;;;;;;4.53;1.77;;;;;;;21.54;43.42;100205.34;5030090;27;97566;-77
2024/02/07 01:12:25;;;;;;;4.43;2.00;;;;;;;21.54;43.40;100306.19;5019805;27;118903;-77
2024/02/07 01:14:50;;;;;;;4.50;1.88;;;;;;;21.55;43.36;100253.97;5029425;28;96835;-77
2024/02/07 01:17:15;;;;;;;3.20;1.65;;;;;;;21.55;43.44;100280.50;5032055;27;96969;-77
2024/02/07 01:19:41;;;;;;;4.25;1.88;;;;;;;21.54;43.68;100242.50;5026529;27;97626;-77
2024/02/07 01:22:06;;;;;;;4.57;1.80;;;;;;;21.54;43.57;100261.06;5027080;27;116980;-77
2024/02/07 01:24:32;;;;;;;5.00;2.20;;;;;;;21.54;43.62;100281.44;5030225;27;96840;-77
2024/02/07 01:26:57;;;;;;;4.00;1.92;;;;;;;21.54;43.49;100249.63;5023916;27;97562;-77
2024/02/07 01:29:22;;;;;;;4.68;2.00;;;;;;;21.54;43.67;100281.44;5021151;27;100385;-77
2024/02/07 01:31:48;;;;;;;2.75;1.50;;;;;;;21.54;43.34;100281.44;5023211;27;96840;-77
2024/02/07 01:34:13;;;;;;;3.60;1.38;;;;;;;21.53;43.51;100240.75;5027532;27;96885;-77
2024/02/07 01:36:45;;;;;;;3.80;1.67;;;;;;;21.54;43.63;100254.91;5025673;27;111388;-77
2024/02/07 01:39:11;;;;;;;5.07;2.20;;;;;;;21.52;43.26;100252.31;5033706;27;97250;-77
2024/02/07 01:41:56;;;;;;;3.15;1.67;;;;;;;21.53;43.18;100254.03;5028737;28;96799;-77
2024/02/07 01:44:22;;;;;;;2.65;1.58;;;;;;;21.51;43.37;100261.19;5020643;27;96778;-77
2024/02/07 01:46:47;;;;;;;4.30;1.52;;;;;;;21.52;43.26;100257.63;5025189;27;99779;-77
2024/02/07 01:49:14;;;;;;;3.50;1.80;;;;;;;21.52;43.35;100257.63;5035540;27;97654;-77
2024/02/07 01:51:41;;;;;;;3.50;1.80;;;;;;;21.53;43.30;100269.09;5021618;27;96766;-77
2024/02/07 01:54:06;;;;;;;4.10;1.95;;;;;;;21.52;43.29;100270.91;5034835;27;97398;-77
2024/02/07 01:56:32;;;;;;;3.10;1.70;;;;;;;21.53;43.32;100274.41;5032880;27;98332;-77
2024/02/07 01:58:59;;;;;;;3.22;1.00;;;;;;;21.53;43.34;100277.06;5032524;27;97216;-77
2024/02/07 02:01:26;;;;;;;3.97;1.30;;;;;;;21.52;43.55;100281.50;5029340;27;97405;-77
2024/02/07 02:03:52;;;;;;;3.72;1.25;;;;;;;21.53;43.22;100266.44;5030131;27;96927;-77
2024/02/07 02:06:18;;;;;;;4.18;1.88;;;;;;;21.52;43.37;100284.16;5025925;27;96891;-77
2024/02/07 02:08:43;;;;;;;4.15;1.50;;;;;;;21.53;43.61;100277.06;5025834;28;96776;-77
2024/02/07 02:11:11;;;;;;;3.08;1.70;;;;;;;21.53;43.45;100279.72;5023735;27;102475;-77
2024/02/07 02:13:37;;;;;;;3.58;1.90;;;;;;;21.53;43.38;100277.06;5044505;27;96750;-77
2024/02/07 02:16:03;;;;;;;5.15;1.30;;;;;;;21.53;43.38;100277.91;5023984;27;97594;-77
2024/02/07 02:18:30;;;;;;;4.18;1.70;;;;;;;21.52;43.61;100262.94;5016283;28;97392;-77
2024/02/07 02:20:58;;;;;;;3.10;1.65;;;;;;;21.52;43.57;100270.91;5012150;27;97173;-77
2024/02/07 02:23:43;;;;;;;3.55;1.10;;;;;;;21.52;43.38;100270.91;5023872;27;96823;-76
2024/02/07 02:26:27;;;;;;;3.30;1.65;;;;;;;21.51;43.49;100274.47;5029178;27;100464;-77
2024/02/07 02:29:09;;;;;;;4.30;1.20;;;;;;;21.50;43.26;100267.44;5028486;27;97141;-77
2024/02/07 02:31:36;;;;;;;3.22;1.48;;;;;;;21.50;43.52;100272.75;5027472;27;96831;-77
2024/02/07 02:34:03;;;;;;;2.40;1.35;;;;;;;21.51;43.57;100279.78;5012086;28;98093;-77
2024/02/07 02:36:28;;;;;;;3.83;1.20;;;;;;;21.51;43.52;100276.25;5022743;27;96883;-77
2024/02/07 02:38:54;;;;;;;2.45;1.42;;;;;;;21.52;43.41;100267.38;5028223;28;97196;-77
2024/02/07 02:41:20;;;;;;;3.63;1.48;;;;;;;21.51;43.23;100274.47;5030295;27;96981;-77
2024/02/07 02:43:45;;;;;;;3.50;1.20;;;;;;;21.52;43.24;100283.31;5026838;27;97080;-77
2024/02/07 02:46:11;;;;;;;3.03;1.50;;;;;;;21.51;43.48;100277.13;5027403;27;101133;-77
2024/02/07 02:48:37;;;;;;;3.97;1.85;;;;;;;21.52;43.24;100275.34;5027001;28;97437;-77
2024/02/07 02:51:03;;;;;;;2.75;1.00;;;;;;;21.52;43.29;100294.78;5024778;27;96949;-77
2024/02/07 02:53:32;;;;;;;5.32;1.60;;;;;;;21.50;43.27;100288.69;5026826;27;97133;-77
2024/02/07 02:55:58;;;;;;;3.75;1.10;;;;;;;21.52;43.56;100309.84;5027473;28;97394;-77
2024/02/07 02:58:29;;;;;;;3.30;1.55;;;;;;;21.52;43.31;100312.50;5031792;27;96782;-77
2024/02/07 03:00:56;;;;;;;2.70;0.90;;;;;;;21.52;43.48;100317.81;5037331;27;96842;-77
2024/02/07 03:03:23;;;;;;;3.25;1.27;;;;;;;21.51;43.30;100314.25;5026168;27;97277;-77
2024/02/07 03:05:58;;;;;;;2.80;1.48;;;;;;;21.52;43.44;100307.19;5031069;27;96932;-77
2024/02/07 03:08:39;;;;;;;3.15;1.55;;;;;;;21.51;43.05;100311.63;5027236;28;96945;-77
2024/02/07 03:11:14;;;;;;;2.65;1.45;;;;;;;21.51;43.07;100318.72;5027612;28;97193;-77
2024/02/07 03:13:39;;;;;;;3.20;1.05;;;;;;;21.50;43.37;100320.53;5029627;28;96791;-77
2024/02/07 03:16:06;;;;;;;2.88;1.48;;;;;;;21.50;43.19;100312.56;5024546;27;99183;-77
2024/02/07 03:18:35;;;;;;;2.80;1.00;;;;;;;21.50;43.47;100317.88;5010530;28;100433;-77
2024/02/07 03:21:05;;;;;;;2.75;0.90;;;;;;;21.51;43.36;100310.75;5027874;28;96861;-77
2024/02/07 03:23:32;;;;;;;2.50;1.40;;;;;;;21.51;43.28;100330.19;5028811;28;97177;-77
2024/02/07 03:25:58;;;;;;;3.33;1.38;;;;;;;21.50;43.33;100325.81;5028673;28;100254;-77
2024/02/07 03:28:23;;;;;;;3.03;1.50;;;;;;;21.49;43.04;100319.63;5016653;27;97218;-77
2024/02/07 03:30:48;;;;;;;2.22;0.90;;;;;;;21.49;43.44;100316.97;5029107;27;114888;-78
2024/02/07 03:33:14;;;;;;;3.85;1.10;;;;;;;21.49;43.05;100327.59;5029250;28;97027;-77
2024/02/07 03:35:39;;;;;;;2.38;1.55;;;;;;;21.50;43.13;100315.22;5028411;27;96891;-77
2024/02/07 03:38:05;;;;;;;2.17;0.90;;;;;;;21.49;43.10;100340.84;5012406;27;97091;-77
2024/02/07 03:40:30;;;;;;;2.20;0.93;;;;;;;21.49;43.20;100335.56;5026954;27;117726;-77
2024/02/07 03:42:56;;;;;;;2.47;1.45;;;;;;;21.50;43.31;100320.53;5026959;27;96850;-77
2024/02/07 03:45:21;;;;;;;2.75;1.42;;;;;;;21.49;43.03;100330.25;5025202;27;97651;-77
2024/02/07 03:47:47;;;;;;;2.28;1.30;;;;;;;21.49;43.20;100322.28;5029877;27;97222;-77
2024/02/07 03:50:16;;;;;;;2.88;1.30;;;;;;;21.50;43.19;100320.53;5023828;27;96950;-77
2024/02/07 03:52:43;;;;;;;2.80;1.30;;;;;;;21.49;43.13;100337.34;5027777;27;96837;-77
2024/02/07 03:55:12;;;;;;;2.20;1.25;;;;;;;21.49;43.20;100353.28;5029308;27;97893;-78
2024/02/07 03:57:42;;;;;;;2.95;1.50;;;;;;;21.48;43.18;100355.06;5028170;27;97659;-77
2024/02/07 04:00:08;;;;;;;2.65;1.23;;;;;;;21.48;43.01;100349.75;5027768;28;97332;-77
2024/02/07 04:02:39;;;;;;;1.65;1.23;;;;;;;21.48;43.05;100344.47;5029443;28;96740;-77
2024/02/07 04:05:05;;;;;;;1.90;0.80;;;;;;;21.48;43.17;100341.81;5024708;27;99332;-77
2024/02/07 04:07:32;;;;;;;2.30;0.90;;;;;;;21.49;43.17;100353.28;5020198;28;99268;-77
2024/02/07 04:09:57;;;;;;;2.30;0.80;;;;;;;21.48;43.17;100352.41;5027541;27;96869;-77
2024/02/07 05:17:16;;;;;;;1.45;0.60;;;;;;;21.40;43.09;100394.25;5029484;27;97221;-77
2024/02/07 05:19:41;;;;;;;1.75;1.02;;;;;;;21.41;43.05;100388.03;5028386;27;98305;-77
2024/02/07 05:22:06;;;;;;;1.35;0.60;;;;;;;21.40;42.89;100388.97;5026829;28;113369;-77
2024/02/07 05:24:33;;;;;;;1.33;1.00;;;;;;;21.42;43.14;100383.59;5026625;27;118513;-77
2024/02/07 05:26:58;;;;;;;1.90;0.75;;;;;;;21.42;42.95;100384.44;5025462;28;96710;-77
2024/02/07 05:29:24;;;;;;;2.85;1.30;;;;;;;21.44;43.04;100381.75;5018111;28;97569;-77
2024/02/07 05:31:49;;;;;;;3.17;1.30;;;;;;;21.42;43.34;100383.59;5023854;27;99173;-77
2024/02/07 05:34:15;;;;;;;2.85;0.98;;;;;;;21.42;43.16;100387.09;5032689;27;115070;-77
2024/02/07 05:36:40;;;;;;;2.53;1.10;;;;;;;21.43;42.75;100380.88;5020716;27;97050;-77
2024/02/07 05:39:05;;;;;;;2.30;0.60;;;;;;;21.43;42.99;100377.38;5024818;27;114916;-77
2024/02/07 05:41:31;;;;;;;2.35;0.90;;;;;;;21.43;42.83;100374.72;5020778;27;97133;-78
2024/02/07 05:43:56;;;;;;;2.08;0.52;;;;;;;21.43;43.14;100383.53;5021233;27;116617;-78
2024/02/07 05:46:21;;;;;;;2.80;1.13;;;;;;;21.43;43.16;100390.66;5025523;27;96963;-78
2024/02/07 05:48:47;;;;;;;1.73;1.17;;;;;;;21.43;43.12;100399.47;5019834;28;98180;-77
2024/02/07 05:51:22;;;;;;;1.55;0.90;;;;;;;21.44;43.02;100389.69;5023769;27;99989;-77
2024/02/07 05:53:48;;;;;;;1.67;1.15;;;;;;;21.43;42.95;100396.81;5024084;27;97014;-77
2024/02/07 05:56:15;;;;;;;2.67;1.27;;;;;;;21.44;42.87;100401.19;5024945;27;96892;-77
2024/02/07 05:58:41;;;;;;;2.15;1.20;;;;;;;21.44;42.89;100400.31;5030046;28;100927;-77
2024/02/07 06:01:07;;;;;;;1.45;0.60;;;;;;;21.45;42.65;100402.06;5020272;27;97947;-77
2024/02/07 06:03:33;;;;;;;2.08;0.82;;;;;;;21.44;42.77;100403.84;5015527;28;97463;-77
2024/02/07 06:05:58;;;;;;;1.80;1.00;;;;;;;21.45;42.68;100396.75;5015365;28;96832;-77
2024/02/07 06:08:24;;;;;;;2.28;1.10;;;;;;;21.44;43.19;100403.84;5029774;27;97896;-77
2024/02/07 06:10:49;;;;;;;2.45;1.17;;;;;;;21.44;42.83;100403.84;5031722;28;97765;-77
2024/02/07 06:13:15;;;;;;;2.30;0.65;;;;;;;21.44;43.15;100402.97;5014713;27;96774;-77
2024/02/07 06:15:41;;;;;;;2.13;1.08;;;;;;;21.43;42.64;100410.06;5028529;27;96961;-78
2024/02/07 06:18:06;;;;;;;0.93;0.45;;;;;;;21.45;43.03;100420.63;5028342;27;97502;-77
2024/02/07 06:20:32;;;;;;;2.35;0.90;;;;;;;21.44;42.77;100427.72;5038072;27;98251;-77
2024/02/07 06:22:57;;;;;;;2.13;0.75;;;;;;;21.44;42.82;100432.16;5021334;27;97562;-77
2024/02/07 06:25:23;;;;;;;2.28;0.75;;;;;;;21.44;42.96;100434.81;5012925;27;96851;-77
2024/02/07 06:27:48;;;;;;;1.65;0.65;;;;;;;21.44;42.75;100448.06;5030575;28;106277;-77
2024/02/07 06:30:13;;;;;;;1.02;0.52;;;;;;;21.43;42.64;100446.34;5034257;27;97535;-77
2024/02/07 06:32:39;;;;;;;1.10;0.80;;;;;;;21.43;42.82;100455.19;5019267;28;96824;-77
2024/02/07 06:35:04;;;;;;;2.45;1.38;;;;;;;21.44;43.00;100451.63;5024907;27;99853;-77
2024/02/07 06:37:30;;;;;;;2.22;1.15;;;;;;;21.43;42.88;100444.56;5020214;27;96813;-77
2024/02/07 06:39:55;;;;;;;1.20;0.98;;;;;;;21.42;43.01;100442.81;5026437;27;97744;-77
2024/02/07 06:42:21;;;;;;;2.38;1.10;;;;;;;21.42;42.95;100442.81;5020920;28;117486;-77
2024/02/07 06:44:46;;;;;;;2.70;1.00;;;;;;;21.42;42.86;100450.78;5014255;27;97032;-78
2024/02/07 06:47:12;;;;;;;1.55;1.05;;;;;;;21.43;42.75;100456.97;5020324;28;118642;-77
2024/02/07 06:49:38;;;;;;;1.63;0.60;;;;;;;21.43;42.57;100454.31;5017832;27;97328;-78
2024/02/07 06:52:03;;;;;;;1.25;1.00;;;;;;;21.42;42.60;100450.78;5016682;28;97491;-77
2024/02/07 06:54:28;;;;;;;1.85;1.13;;;;;;;21.43;42.87;100452.53;5015398;27;96911;-77
2024/02/07 06:56:54;;;;;;;2.90;0.65;;;;;;;21.42;42.81;100450.78;5029192;27;96950;-77
2024/02/07 06:59:19;;;;;;;2.53;1.15;;;;;;;21.42;42.90;100448.13;5025895;27;125364;-77
2024/02/07 07:01:45;;;;;;;2.03;1.10;;;;;;;21.42;42.80;100458.75;5019436;27;96796;-77
2024/02/07 07:04:10;;;;;;;2.38;1.35;;;;;;;21.43;42.77;100456.97;5024491;27;97248;-77
2024/02/07 07:06:36;;;;;;;1.17;0.55;;;;;;;21.42;42.74;100449.94;5013040;27;98351;-77
2024/02/07 07:09:02;;;;;;;1.98;1.10;;;;;;;21.42;42.51;100455.22;5029567;28;96807;-77
2024/02/07 07:11:27;;;;;;;2.08;1.45;;;;;;;21.42;42.92;100455.22;5017527;27;97185;-77
2024/02/07 07:13:57;;;;;;;2.45;0.52;;;;;;;21.42;42.70;100465.84;5026894;27;96870;-77
2024/02/07 07:16:22;;;;;;;1.33;0.88;;;;;;;21.43;42.64;100462.28;5028628;27;99529;-77
2024/02/07 07:18:52;;;;;;;1.23;0.60;;;;;;;21.42;42.70;100458.75;5016143;28;100283;-77
2024/02/07 07:21:18;;;;;;;2.25;1.10;;;;;;;21.42;42.51;100469.34;5025994;27;96990;-77
2024/02/07 07:23:43;;;;;;;1.42;0.70;;;;;;;21.42;42.82;100463.19;5021257;28;96937;-77
2024/02/07 07:26:09;;;;;;;3.08;1.15;;;;;;;21.41;42.78;100472.94;5018479;27;124629;-77
2024/02/07 07:28:34;;;;;;;1.67;0.85;;;;;;;21.42;42.67;100468.50;5028607;27;97794;-77
2024/02/07 07:30:59;;;;;;;1.45;0.95;;;;;;;21.42;42.57;100473.81;5038549;27;112196;-77
2024/02/07 07:33:25;;;;;;;1.98;1.10;;;;;;;21.42;42.48;100481.75;5032375;27;96961;-77
2024/02/07 07:35:50;;;;;;;1.65;0.93;;;;;;;21.42;42.70;100471.16;5030315;27;99571;-77
2024/02/07 07:38:15;;;;;;;0.98;0.40;;;;;;;21.41;42.72;100475.59;5028947;27;127094;-77
2024/02/07 07:40:41;;;;;;;1.95;1.02;;;;;;;21.41;42.76;100475.59;5029210;27;96828;-77
2024/02/07 07:43:07;;;;;;;1.70;1.10;;;;;;;21.41;42.84;100474.75;5028633;27;97041;-77
2024/02/07 07:45:32;;;;;;;1.77;0.90;;;;;;;21.41;42.51;100488.00;5019709;27;123491;-77
2024/02/07 07:47:58;;;;;;;1.20;0.60;;;;;;;21.39;42.66;100493.38;5009169;27;109518;-77
2024/02/07 07:50:23;;;;;;;2.10;0.90;;;;;;;21.40;42.44;100491.56;5018141;27;97079;-77
2024/02/07 07:52:48;;;;;;;1.63;0.98;;;;;;;21.41;42.65;100493.31;5034138;27;96776;-77
2024/02/07 07:55:15;;;;;;;0.82;0.38;;;;;;;21.40;42.79;100494.22;5025518;27;125086;-77
2024/02/07 07:57:41;;;;;;;1.23;0.50;;;;;;;21.41;42.77;100498.63;5011864;28;99836;-77
2024/02/07 08:00:07;;;;;;;2.78;1.00;;;;;;;21.41;42.65;100495.97;5028321;27;96746;-77
2024/02/07 08:02:37;;;;;;;1.48;0.80;;;;;;;21.39;42.64;100493.38;5028610;28;97440;-77
2024/02/07 08:05:02;;;;;;;1.20;0.90;;;;;;;21.41;42.63;100511.88;5024258;28;97477;-77
2024/02/07 08:07:28;;;;;;;1.63;0.90;;;;;;;21.39;42.49;100527.88;5027914;27;97233;-77
2024/02/07 08:09:53;;;;;;;0.93;0.80;;;;;;;21.40;42.77;100520.75;5017050;27;96683;-77
2024/02/07 08:12:19;;;;;;;1.80;1.08;;;;;;;21.39;42.49;100511.94;5019706;27;96909;-77
2024/02/07 08:14:44;;;;;;;1.98;0.55;;;;;;;21.40;42.62;100504.84;5019440;28;127060;-77
2024/02/07 08:17:15;;;;;;;2.17;1.05;;;;;;;21.39;42.40;100511.06;5018910;28;102692;-78
2024/02/07 08:19:40;;;;;;;1.33;0.50;;;;;;;21.39;42.69;100519.00;5027545;27;96725;-77
2024/02/07 08:22:06;;;;;;;2.00;0.95;;;;;;;21.39;42.59;100529.63;5024848;27;112920;-77
2024/02/07 08:24:31;;;;;;;1.40;0.75;;;;;;;21.39;42.60;100521.66;5015047;27;128282;-77
2024/02/07 08:26:56;;;;;;;0.70;0.40;;;;;;;21.38;42.55;100542.03;5027691;28;105241;-77
2024/02/07 08:29:22;;;;;;;2.10;1.23;;;;;;;21.39;42.45;100534.94;5021027;27;96730;-77
2024/02/07 08:31:47;;;;;;;0.85;0.40;;;;;;;21.38;42.29;100534.06;5010671;27;96832;-77
2024/02/07 08:34:13;;;;;;;1.20;0.40;;;;;;;21.38;42.52;100544.69;5019867;27;97209;-77
2024/02/07 08:36:39;;;;;;;1.77;0.80;;;;;;;21.39;42.47;100540.25;5024799;27;98511;-77
2024/02/07 08:39:04;;;;;;;2.38;1.05;;;;;;;21.38;42.78;100542.03;5023058;27;96644;-77
2024/02/07 08:41:30;;;;;;;1.60;0.50;;;;;;;21.39;42.46;100535.81;5014432;27;97684;-77
2024/02/07 08:43:56;;;;;;;1.05;0.85;;;;;;;21.39;42.38;100534.94;5009871;27;97211;-77
2024/02/07 08:46:21;;;;;;;1.58;0.50;;;;;;;21.38;42.46;100542.03;5010730;27;96728;-77
2024/02/07 08:48:48;;;;;;;2.15;0.95;;;;;;;21.38;42.33;100542.03;5011254;27;97202;-77
2024/02/07 08:51:15;;;;;;;1.58;0.50;;;;;;;21.39;42.56;100546.44;5015723;27;97298;-76
2024/02/07 08:53:40;;;;;;;1.20;0.85;;;;;;;21.38;42.50;100547.34;5031895;27;97468;-76
2024/02/07 08:56:06;;;;;;;0.98;0.32;;;;;;;21.39;42.37;100545.53;5023615;27;96982;-76
2024/02/07 08:58:32;;;;;;;0.93;0.32;;;;;;;21.39;42.36;100543.78;5026389;27;96751;-77
2024/02/07 09:00:58;;;;;;;1.08;0.52;;;;;;;21.38;42.44;100531.41;5026023;27;97665;-76
2024/02/07 09:03:23;;;;;;;1.50;1.23;;;;;;;21.38;42.52;100544.69;5022440;27;118820;-76
2024/02/07 09:05:48;;;;;;;1.40;0.38;;;;;;;21.39;42.45;100545.53;5019213;27;96917;-76
2024/02/07 09:08:18;;;;;;;1.58;0.50;;;;;;;21.38;42.49;100542.03;5023100;28;96860;-77
2024/02/07 09:10:45;;;;;;;1.30;0.88;;;;;;;21.39;42.27;100554.38;5023904;27;99459;-76
2024/02/07 09:13:11;;;;;;;2.10;0.98;;;;;;;21.38;42.22;100552.66;5023799;27;97412;-77
2024/02/07 09:15:36;;;;;;;1.30;0.95;;;;;;;21.39;42.40;100564.13;5025114;27;97641;-76
2024/02/07 09:18:02;;;;;;;1.07;0.40;;;;;;;21.39;42.43;100572.06;5024827;27;102245;-77
2024/02/07 09:20:27;;;;;;;1.83;0.50;;;;;;;21.38;42.44;100568.56;5025506;27;96880;-77
2024/02/07 09:22:52;;;;;;;1.77;0.50;;;;;;;21.38;42.25;100563.25;5019038;27;126754;-76
2024/02/07 09:25:17;;;;;;;1.30;0.40;;;;;;;21.37;42.43;100566.84;5020422;28;117183;-77
2024/02/07 09:27:43;;;;;;;0.80;0.40;;;;;;;21.38;42.40;100562.41;5018062;27;106793;-76
2024/02/07 09:30:10;;;;;;;0.90;0.40;;;;;;;21.37;42.37;100548.28;5025110;27;96873;-77
2024/02/07 09:32:36;;;;;;;2.00;1.00;;;;;;;21.38;42.23;100549.13;5025745;27;97410;-77
2024/02/07 09:35:03;;;;;;;1.27;0.80;;;;;;;21.39;42.44;100554.38;5036797;27;96996;-76
2024/02/07 09:37:28;;;;;;;2.53;0.40;;;;;;;21.39;42.70;100558.81;5028160;27;96854;-77
2024/02/07 09:39:53;;;;;;;2.35;0.38;;;;;;;21.38;42.40;100565.91;5026386;27;96969;-76
2024/02/07 09:42:21;;;;;;;2.08;0.80;;;;;;;21.39;42.42;100574.72;5018826;27;97382;-77
2024/02/07 09:44:51;;;;;;;1.63;0.93;;;;;;;21.38;42.60;100584.47;5015102;27;97131;-76
2024/02/07 09:47:18;;;;;;;1.20;0.43;;;;;;;21.38;42.20;100589.78;5013724;28;96792;-76
2024/02/07 09:49:46;;;;;;;1.65;1.15;;;;;;;21.38;42.57;100589.78;5020510;27;96725;-76
2024/02/07 09:52:14;;;;;;;2.13;1.00;;;;;;;21.38;42.46;100597.75;5023324;27;97604;-75
2024/02/07 09:54:42;;;;;;;1.63;1.00;;;;;;;21.39;42.30;100602.16;5026638;27;97147;-75
2024/02/07 09:57:08;;;;;;;2.30;0.93;;;;;;;21.39;42.53;100594.19;5035775;27;96928;-76
2024/02/07 09:59:35;;;;;;;1.52;0.50;;;;;;;21.39;42.38;100595.94;5021146;27;97534;-75
2024/02/07 10:02:04;;;;;;;1.23;0.80;;;;;;;21.40;42.49;100592.38;5023589;27;96914;-76
2024/02/07 10:04:34;;;;;;;;;;;;;;;21.33;42.62;100596.19;5031365;27;97076;-76
2024/02/07 10:07:00;;;;;;;2.28;0.98;;;;;;;21.34;42.54;100592.59;5044909;27;97007;-76
2024/02/07 10:09:29;;;;;;;1.23;0.88;;;;;;;21.36;42.28;100582.81;5025157;27;96819;-77
2024/02/07 10:11:55;;;;;;;3.22;1.00;;;;;;;21.37;42.24;100576.56;5026247;27;97529;-77
2024/02/07 10:14:22;;;;;;;2.95;0.43;;;;;;;21.36;42.27;100570.41;5029438;28;96850;-76
2024/02/07 10:16:48;;;;;;;1.48;0.47;;;;;;;21.37;42.51;100572.16;5029880;27;97219;-76
2024/02/07 10:19:13;;;;;;;1.58;0.77;;;;;;;21.38;42.26;100587.13;5006901;27;97200;-77
2024/02/07 10:21:39;;;;;;;1.75;0.80;;;;;;;21.38;42.33;100579.19;5023982;28;97823;-75
2024/02/07 10:24:05;;;;;;;1.60;0.40;;;;;;;21.38;42.45;100570.38;5021135;28;96818;-75
2024/02/07 10:26:31;;;;;;;2.35;0.70;;;;;;;21.40;42.49;100579.13;5025422;27;96807;-77
2024/02/07 10:29:01;;;;;;;2.03;0.50;;;;;;;21.39;42.37;100572.06;5031179;27;96893;-76
2024/02/07 10:31:27;;;;;;;2.50;0.60;;;;;;;21.39;42.62;100570.31;5031011;27;96827;-76
2024/02/07 10:33:54;;;;;;;3.25;1.13;;;;;;;21.38;42.51;100550.00;5015162;27;100127;-76
2024/02/07 10:36:25;;;;;;;3.67;1.13;;;;;;;21.39;42.53;100553.50;5019606;28;97588;-76
2024/02/07 10:38:53;;;;;;;2.42;0.50;;;;;;;21.40;42.11;100560.56;5020274;27;97140;-76
2024/02/07 10:41:20;;;;;;;2.47;0.57;;;;;;;21.40;42.31;100573.81;5020248;27;97567;-76
2024/02/07 10:43:45;;;;;;;1.88;0.68;;;;;;;21.39;42.50;100580.91;5029661;28;97226;-76
2024/02/07 10:46:13;;;;;;;2.90;1.23;;;;;;;21.39;42.43;100580.91;5026465;27;99850;-75
2024/02/07 10:48:40;;;;;;;2.70;1.30;;;;;;;21.41;42.41;100579.06;5020575;27;97118;-75
2024/02/07 10:51:05;;;;;;;2.97;0.90;;;;;;;21.41;42.12;100560.50;5026968;27;97959;-76
2024/02/07 10:53:32;;;;;;;1.33;0.55;;;;;;;21.41;42.28;100560.50;5015627;27;97730;-76
2024/02/07 10:56:00;;;;;;;2.15;0.50;;;;;;;21.41;42.09;100565.81;5026078;27;97040;-76
2024/02/07 10:58:27;;;;;;;3.35;1.13;;;;;;;21.41;42.18;100564.94;5029613;27;98365;-77
2024/02/07 11:00:54;;;;;;;1.90;0.70;;;;;;;21.41;42.48;100559.66;5032845;27;96837;-75
2024/02/07 11:03:21;;;;;;;1.10;0.55;;;;;;;21.41;42.38;100557.00;5018248;28;98501;-76
2024/02/07 11:05:48;;;;;;;2.70;0.60;;;;;;;21.41;42.38;100557.00;5044765;27;96958;-75
2024/02/07 11:08:14;;;;;;;1.88;0.50;;;;;;;21.41;42.47;100554.34;5030282;27;96993;-76
2024/02/07 11:10:40;;;;;;;2.20;1.10;;;;;;;21.42;42.32;100540.13;5029721;27;97094;-76
2024/02/07 11:13:08;;;;;;;2.75;1.25;;;;;;;21.41;42.04;100538.41;5006971;28;97465;-76
2024/02/07 11:15:35;;;;;;;2.80;1.10;;;;;;;21.39;42.47;100538.47;5036391;27;97283;-76
2024/02/07 11:18:01;;;;;;;1.85;0.57;;;;;;;21.41;42.15;100547.22;5030410;27;96782;-76
2024/02/07 11:20:28;;;;;;;2.40;0.63;;;;;;;21.41;42.35;100552.53;5025677;27;99620;-75
2024/02/07 11:22:57;;;;;;;2.63;0.60;;;;;;;21.41;42.16;100554.34;5029326;28;97385;-76
2024/02/07 11:25:24;;;;;;;2.90;0.60;;;;;;;21.40;42.24;100560.56;5026773;27;97787;-76
2024/02/07 11:27:51;;;;;;;2.28;0.80;;;;;;;21.39;42.32;100557.03;5024239;27;97890;-74
2024/02/07 11:30:18;;;;;;;3.33;1.23;;;;;;;21.40;42.04;100560.56;5017941;27;98241;-76
2024/02/07 11:32:46;;;;;;;2.90;0.70;;;;;;;21.41;42.30;100563.16;5020741;28;97134;-76
2024/02/07 11:35:12;;;;;;;1.50;0.80;;;;;;;21.40;42.19;100556.09;5024598;27;97300;-76
2024/02/07 11:37:38;;;;;;;3.08;0.70;;;;;;;21.41;42.05;100549.03;5027825;27;113109;-75
2024/02/07 11:40:08;;;;;;;2.92;0.90;;;;;;;21.41;42.31;100547.22;5022856;27;97767;-76
2024/02/07 11:42:38;;;;;;;2.25;0.95;;;;;;;21.41;42.28;100541.94;5023489;28;100273;-76
2024/02/07 11:45:04;;;;;;;3.35;1.10;;;;;;;21.41;42.35;100538.41;5019951;27;97139;-76
2024/02/07 11:47:33;;;;;;;2.15;1.20;;;;;;;21.41;42.29;100538.41;5009085;27;96906;-76
2024/02/07 11:50:06;;;;;;;2.33;1.10;;;;;;;21.39;42.10;100538.47;5022374;27;99414;-75
2024/02/07 11:52:34;;;;;;;6.05;1.08;;;;;;;21.41;42.38;100549.88;5018975;27;98036;-75
2024/02/07 11:55:04;;;;;;;4.18;0.80;;;;;;;21.40;42.19;100544.63;5022492;27;99479;-76
2024/02/07 11:57:33;;;;;;;2.80;1.15;;;;;;;21.42;41.96;100541.00;5020900;27;97068;-76
2024/02/07 11:59:59;;;;;;;;;;;;;;;21.35;42.35;100549.25;5021417;27;97628;-76
2024/02/07 12:02:25;;;;;;;6.55;1.10;;;;;;;21.36;42.20;100545.69;5024699;28;96839;-76
2024/02/07 12:04:50;;;;;;;2.40;0.50;;;;;;;21.39;42.07;100542.88;5026084;27;96778;-76
2024/02/07 12:07:16;;;;;;;2.78;0.63;;;;;;;21.38;42.22;100550.00;5027335;27;96802;-76
2024/02/07 12:09:41;;;;;;;3.17;0.90;;;;;;;21.40;42.31;100536.69;5023539;27;97608;-75
2024/02/07 12:12:12;;;;;;;3.17;0.70;;;;;;;21.41;41.89;100543.72;5027996;27;96826;-77
2024/02/07 12:14:38;;;;;;;4.05;1.25;;;;;;;21.41;42.31;100536.63;5025292;27;96976;-76
2024/02/07 12:17:04;;;;;;;3.53;0.60;;;;;;;21.43;42.30;100539.22;5022139;27;97550;-75
2024/02/07 12:19:29;;;;;;;3.53;0.80;;;;;;;21.42;41.96;100545.44;5022403;27;98657;-76
2024/02/07 12:21:55;;;;;;;3.60;0.98;;;;;;;21.43;42.14;100547.19;5026327;28;98264;-76
2024/02/07 12:24:20;;;;;;;2.30;0.98;;;;;;;21.43;42.00;100549.84;5034864;27;96792;-76
2024/02/07 12:26:45;;;;;;;1.83;0.60;;;;;;;21.43;42.25;100545.38;5031207;27;96956;-75